createdAt,value
2023-05-14T00:02:39.321Z,9.50
2023-05-14T00:05:26.508Z,9.30
2023-05-14T00:08:13.689Z,9.17
2023-05-14T00:11:06.193Z,8.87
2023-05-14T00:13:55.173Z,9.10
2023-05-14T00:16:42.298Z,8.93
2023-05-14T00:19:29.437Z,9.77
2023-05-14T00:22:16.536Z,9.37
2023-05-14T00:25:04.273Z,9.00
2023-05-14T00:27:54.262Z,8.90
2023-05-14T00:30:41.494Z,9.13
2023-05-14T00:33:28.623Z,8.83
2023-05-14T00:36:18.205Z,9.10
2023-05-14T00:39:05.526Z,9.13
2023-05-14T00:41:52.645Z,8.83
2023-05-14T00:44:39.904Z,8.77
2023-05-14T00:47:27.541Z,9.07
2023-05-14T00:50:16.280Z,9.37
2023-05-14T00:53:04.224Z,9.33
2023-05-14T00:55:53.035Z,8.77
2023-05-14T00:58:40.182Z,9.70
2023-05-14T01:01:28.930Z,9.40
2023-05-14T01:04:19.519Z,9.63
2023-05-14T01:07:26.892Z,9.27
2023-05-14T01:10:40.987Z,9.67
2023-05-14T01:13:46.689Z,9.63
2023-05-14T01:16:35.198Z,9.70
2023-05-14T01:19:50.371Z,9.97
2023-05-14T01:22:38.139Z,10.27
2023-05-14T01:25:27.502Z,10.50
2023-05-14T01:28:19.600Z,10.40
2023-05-14T01:31:18.967Z,9.77
2023-05-14T01:34:07.909Z,10.27
2023-05-14T01:36:57.015Z,10.00
2023-05-14T01:39:45.321Z,10.97
2023-05-14T01:42:33.038Z,10.63
2023-05-14T01:45:26.416Z,11.10
2023-05-14T01:48:13.906Z,11.30
2023-05-14T01:51:02.762Z,10.80
2023-05-14T01:53:49.860Z,10.57
2023-05-14T01:56:37.012Z,10.40
2023-05-14T01:59:24.159Z,10.60
2023-05-14T02:02:11.401Z,10.37
2023-05-14T02:04:58.741Z,10.33
2023-05-14T02:07:45.932Z,10.77
2023-05-14T02:10:33.150Z,12.03
2023-05-14T02:13:20.595Z,11.83
2023-05-14T02:16:09.355Z,11.30
2023-05-14T02:18:56.669Z,10.90
2023-05-14T02:21:43.840Z,11.60
2023-05-14T02:24:31.045Z,12.00
2023-05-14T02:27:21.256Z,11.77
2023-05-14T02:30:09.395Z,11.67
2023-05-14T02:32:57.382Z,11.50
2023-05-14T02:35:44.532Z,11.10
2023-05-14T02:38:31.728Z,11.10
2023-05-14T02:41:18.983Z,11.60
2023-05-14T02:44:06.139Z,11.30
2023-05-14T02:46:53.889Z,11.10
2023-05-14T02:49:41.029Z,11.60
2023-05-14T02:52:28.300Z,11.93
2023-05-14T02:55:15.508Z,12.90
2023-05-14T02:58:02.768Z,12.30
2023-05-14T03:00:50.118Z,12.43
2023-05-14T03:03:41.009Z,13.53
2023-05-14T03:06:28.457Z,13.43
2023-05-14T03:09:15.590Z,13.00
2023-05-14T03:12:02.755Z,13.67
2023-05-14T03:14:49.865Z,13.30
2023-05-14T03:17:37.126Z,12.97
2023-05-14T03:20:26.160Z,13.23
2023-05-14T03:23:14.938Z,14.20
2023-05-14T03:26:02.360Z,13.63
2023-05-14T03:28:50.575Z,14.00
2023-05-14T03:31:37.756Z,14.50
2023-05-14T03:34:24.936Z,14.00
2023-05-14T03:37:12.060Z,13.30
2023-05-14T03:39:59.245Z,13.60
2023-05-14T03:42:46.409Z,13.33
2023-05-14T03:45:33.952Z,14.27
2023-05-14T03:48:21.180Z,13.50
2023-05-14T03:51:08.378Z,13.27
2023-05-14T03:53:55.595Z,14.00
2023-05-14T03:56:44.122Z,14.03
2023-05-14T03:59:31.321Z,13.30
2023-05-14T04:02:19.088Z,13.97
2023-05-14T04:05:07.443Z,13.03
2023-05-14T04:07:54.631Z,13.50
2023-05-14T04:10:43.055Z,13.23
2023-05-14T04:13:30.170Z,12.80
2023-05-14T04:16:17.306Z,12.70
2023-05-14T04:19:07.396Z,13.33
2023-05-14T04:21:54.693Z,13.57
2023-05-14T04:24:41.850Z,13.73
2023-05-14T04:27:29.172Z,13.20
2023-05-14T04:30:16.471Z,12.80
2023-05-14T04:33:04.113Z,13.33
2023-05-14T04:35:52.698Z,12.53
2023-05-14T04:38:39.963Z,12.33
2023-05-14T04:41:27.060Z,12.33
2023-05-14T04:44:14.259Z,12.60
2023-05-14T04:47:02.139Z,11.80
2023-05-14T04:49:49.333Z,11.17
2023-05-14T04:52:36.413Z,11.47
2023-05-14T04:55:23.617Z,11.20
2023-05-14T04:58:10.755Z,11.13
2023-05-14T05:00:58.091Z,10.90
2023-05-14T05:03:45.337Z,10.90
2023-05-14T05:06:32.539Z,11.00
2023-05-14T05:09:19.637Z,10.80
2023-05-14T05:12:07.233Z,11.20
2023-05-14T05:14:54.361Z,11.03
2023-05-14T05:17:41.527Z,11.20
2023-05-14T05:20:28.991Z,11.33
2023-05-14T05:23:16.390Z,11.00
2023-05-14T05:26:03.653Z,11.30
2023-05-14T05:28:50.736Z,11.57
2023-05-14T05:31:38.028Z,10.33
2023-05-14T05:34:25.344Z,11.07
2023-05-14T05:37:12.867Z,11.33
2023-05-14T05:40:00.031Z,10.37
2023-05-14T05:42:47.165Z,11.40
2023-05-14T05:45:34.402Z,10.80
2023-05-14T05:48:21.774Z,10.80
2023-05-14T05:51:09.121Z,11.03
2023-05-14T05:53:56.561Z,10.37
2023-05-14T05:56:43.827Z,10.23
2023-05-14T05:59:30.993Z,9.90
2023-05-14T06:02:19.364Z,8.93
2023-05-14T06:05:08.644Z,9.57
2023-05-14T06:07:55.920Z,9.13
2023-05-14T06:10:43.134Z,9.93
2023-05-14T06:13:30.227Z,9.30
2023-05-14T06:16:17.543Z,9.80
2023-05-14T06:19:04.801Z,9.57
2023-05-14T06:21:51.938Z,8.47
2023-05-14T06:24:39.180Z,8.93
2023-05-14T06:27:26.469Z,9.80
2023-05-14T06:30:14.133Z,9.27
2023-05-14T06:33:01.370Z,9.10
2023-05-14T06:35:48.527Z,9.03
2023-05-14T06:38:35.634Z,8.83
2023-05-14T06:41:22.783Z,9.00
2023-05-14T06:44:10.049Z,7.60
2023-05-14T06:46:57.393Z,7.70
2023-05-14T06:49:44.512Z,7.90
2023-05-14T06:52:31.833Z,7.70
2023-05-14T06:55:19.103Z,6.93
2023-05-14T06:58:09.402Z,7.47
2023-05-14T07:00:56.516Z,7.03
2023-05-14T07:03:43.652Z,7.03
2023-05-14T07:06:30.856Z,7.50
2023-05-14T07:09:17.977Z,6.63
2023-05-14T07:12:05.670Z,7.00
2023-05-14T07:14:52.833Z,6.63
2023-05-14T07:17:39.911Z,6.00
2023-05-14T07:20:27.332Z,5.90
2023-05-14T07:23:14.545Z,5.30
2023-05-14T07:26:01.759Z,5.30
2023-05-14T07:28:48.880Z,5.53
2023-05-14T07:31:36.351Z,5.43
2023-05-14T07:34:23.541Z,5.37
2023-05-14T07:37:10.752Z,5.30
2023-05-14T07:39:57.954Z,4.80
2023-05-14T07:42:45.085Z,4.60
2023-05-14T07:45:33.486Z,5.00
2023-05-14T07:48:20.698Z,4.33
2023-05-14T07:51:07.778Z,4.10
2023-05-14T07:53:58.519Z,4.63
2023-05-14T07:56:45.622Z,4.70
2023-05-14T07:59:32.718Z,4.30
2023-05-14T08:02:19.965Z,4.27
2023-05-14T08:05:10.747Z,4.20
2023-05-14T08:07:57.922Z,4.50
2023-05-14T08:10:45.109Z,4.17
2023-05-14T08:13:32.671Z,3.73
2023-05-14T08:16:20.582Z,3.67
2023-05-14T08:19:07.772Z,3.83
2023-05-14T08:21:55.421Z,3.40
2023-05-14T08:24:43.233Z,3.28
2023-05-14T08:27:30.327Z,3.90
2023-05-14T08:30:18.171Z,3.53
2023-05-14T08:33:05.598Z,3.38
2023-05-14T08:35:56.288Z,3.50
2023-05-14T08:38:44.187Z,3.55
2023-05-14T08:41:32.122Z,3.00
2023-05-14T08:44:28.467Z,3.53
2023-05-14T08:47:18.483Z,3.63
2023-05-14T08:50:08.224Z,3.67
2023-05-14T08:52:55.471Z,3.33
2023-05-14T08:55:44.287Z,3.22
2023-05-14T08:58:31.400Z,3.40
2023-05-14T09:01:19.811Z,3.05
2023-05-14T09:04:08.606Z,3.20
2023-05-14T09:06:56.047Z,3.20
2023-05-14T09:09:45.106Z,3.22
2023-05-14T09:12:32.385Z,3.15
2023-05-14T09:15:19.658Z,3.13
2023-05-14T09:18:07.156Z,2.92
2023-05-14T09:20:54.650Z,2.95
2023-05-14T09:23:45.315Z,3.30
2023-05-14T09:26:34.267Z,3.15
2023-05-14T09:29:21.456Z,3.22
2023-05-14T09:32:10.313Z,2.75
2023-05-14T09:34:57.447Z,3.30
2023-05-14T09:37:52.178Z,2.88
2023-05-14T09:40:39.596Z,2.83
2023-05-14T09:43:26.844Z,2.88
2023-05-14T09:46:14.017Z,2.65
2023-05-14T09:49:01.124Z,3.13
2023-05-14T09:51:51.535Z,3.28
2023-05-14T09:54:39.633Z,2.80
2023-05-14T09:57:27.132Z,2.90
2023-05-14T10:00:16.149Z,2.83
2023-05-14T10:03:07.016Z,2.72
2023-05-14T10:05:56.501Z,3.20
2023-05-14T10:08:49.484Z,3.00
2023-05-14T10:11:39.057Z,3.28
2023-05-14T10:14:56.064Z,3.17
2023-05-14T10:17:47.625Z,3.17
2023-05-14T10:20:36.094Z,3.08
2023-05-14T10:23:23.488Z,3.30
2023-05-14T10:26:11.358Z,2.92
2023-05-14T10:28:59.453Z,2.97
2023-05-14T10:31:47.207Z,3.28
2023-05-14T10:34:42.486Z,2.90
2023-05-14T10:37:30.557Z,2.75
2023-05-14T10:40:19.312Z,3.00
2023-05-14T10:43:08.738Z,3.15
2023-05-14T10:45:56.812Z,2.80
2023-05-14T10:48:44.565Z,2.70
2023-05-14T10:51:32.355Z,3.00
2023-05-14T10:54:19.644Z,2.90
2023-05-14T10:57:11.729Z,2.80
2023-05-14T11:00:01.229Z,2.92
2023-05-14T11:02:48.552Z,2.60
2023-05-14T11:05:38.810Z,2.70
2023-05-14T11:08:29.405Z,2.67
2023-05-14T11:11:19.224Z,3.00
2023-05-14T11:14:08.496Z,2.60
2023-05-14T11:16:58.151Z,2.80
2023-05-14T11:19:46.093Z,2.45
2023-05-14T11:22:37.468Z,2.70
2023-05-14T11:25:26.033Z,2.80
2023-05-14T11:28:13.719Z,2.53
2023-05-14T11:31:01.052Z,2.35
2023-05-14T11:33:48.197Z,2.40
2023-05-14T11:36:36.917Z,2.10
2023-05-14T11:39:24.091Z,2.22
2023-05-14T11:42:12.544Z,2.40
2023-05-14T11:44:59.812Z,2.50
2023-05-14T11:47:47.126Z,2.50
2023-05-14T11:50:36.752Z,2.60
2023-05-14T11:53:29.588Z,2.50
2023-05-14T11:56:16.837Z,2.42
2023-05-14T11:59:04.108Z,2.38
2023-05-14T12:01:52.464Z,2.47
2023-05-14T12:04:43.274Z,2.78
2023-05-14T12:07:33.546Z,2.63
2023-05-14T12:10:20.817Z,2.65
2023-05-14T12:13:07.914Z,2.88
2023-05-14T12:16:00.943Z,2.42
2023-05-14T12:18:48.317Z,2.50
2023-05-14T12:21:36.641Z,2.38
2023-05-14T12:24:25.901Z,2.50
2023-05-14T12:27:13.045Z,2.40
2023-05-14T12:30:19.041Z,2.45
2023-05-14T12:33:08.346Z,2.60
2023-05-14T12:36:07.329Z,2.50
2023-05-14T12:39:07.627Z,2.60
2023-05-14T12:41:54.817Z,2.38
2023-05-14T12:44:42.294Z,2.90
2023-05-14T12:47:29.667Z,2.28
2023-05-14T12:50:17.016Z,2.20
2023-05-14T12:53:04.582Z,2.65
2023-05-14T12:55:51.799Z,2.50
2023-05-14T12:58:39.222Z,2.63
2023-05-14T13:01:26.344Z,2.60
2023-05-14T13:04:13.902Z,2.30
2023-05-14T13:07:01.137Z,2.13
2023-05-14T13:09:48.292Z,2.15
2023-05-14T13:12:35.531Z,2.40
2023-05-14T13:15:23.249Z,2.90
2023-05-14T13:18:10.541Z,2.70
2023-05-14T13:21:07.064Z,2.80
2023-05-14T13:23:54.273Z,2.65
2023-05-14T13:26:41.404Z,2.78
2023-05-14T13:29:29.800Z,2.58
2023-05-14T13:32:17.013Z,2.80
2023-05-14T13:35:05.017Z,2.67
2023-05-14T13:37:52.248Z,2.65
2023-05-14T13:40:39.503Z,2.67
2023-05-14T13:43:26.676Z,2.53
2023-05-14T13:46:13.853Z,2.60
2023-05-14T13:49:01.081Z,2.70
2023-05-14T13:51:48.254Z,2.63
2023-05-14T13:54:35.391Z,2.40
2023-05-14T13:57:23.168Z,2.45
2023-05-14T14:00:11.173Z,2.70
2023-05-14T14:02:58.374Z,2.50
2023-05-14T14:05:45.777Z,2.45
2023-05-14T14:08:35.056Z,2.58
2023-05-14T14:11:24.888Z,2.60
2023-05-14T14:14:14.506Z,2.42
2023-05-14T14:17:01.699Z,2.80
2023-05-14T14:19:48.760Z,2.72
2023-05-14T14:22:37.267Z,2.60
2023-05-14T14:25:24.850Z,2.40
2023-05-14T14:28:13.731Z,2.60
2023-05-14T14:31:01.058Z,2.50
2023-05-14T14:33:48.162Z,2.60
2023-05-14T14:36:35.473Z,2.53
2023-05-14T14:39:25.286Z,2.80
2023-05-14T14:42:12.713Z,2.50
2023-05-14T14:44:59.903Z,2.40
2023-05-14T14:47:49.121Z,2.70
2023-05-14T14:50:36.288Z,2.67
2023-05-14T14:53:24.387Z,2.60
2023-05-14T14:56:11.595Z,2.63
2023-05-14T14:58:58.661Z,3.20
2023-05-14T15:01:46.089Z,2.58
2023-05-14T15:04:34.823Z,2.40
2023-05-14T15:07:22.723Z,2.50
2023-05-14T15:10:10.152Z,2.50
2023-05-14T15:13:00.319Z,2.47
2023-05-14T15:15:47.634Z,2.47
2023-05-14T15:18:34.836Z,2.38
2023-05-14T15:21:22.015Z,2.53
2023-05-14T15:24:13.500Z,2.65
2023-05-14T15:27:00.723Z,2.67
2023-05-14T15:29:47.855Z,2.53
2023-05-14T15:32:34.990Z,2.70
2023-05-14T15:35:22.460Z,2.60
2023-05-14T15:38:10.046Z,2.80
2023-05-14T15:40:57.256Z,2.50
2023-05-14T15:43:44.394Z,2.45
2023-05-14T15:46:32.237Z,2.65
2023-05-14T15:49:19.423Z,2.50
2023-05-14T15:52:06.764Z,2.70
2023-05-14T15:54:56.260Z,2.70
2023-05-14T15:57:44.163Z,2.75
2023-05-14T16:00:31.515Z,2.72
2023-05-14T16:03:18.817Z,2.60
2023-05-14T16:06:06.297Z,2.78
2023-05-14T16:08:53.493Z,2.67
2023-05-14T16:11:44.841Z,2.70
2023-05-14T16:14:34.553Z,2.90
2023-05-14T16:17:21.806Z,2.85
2023-05-14T16:20:09.695Z,2.65
2023-05-14T16:22:56.851Z,2.70
2023-05-14T16:25:44.188Z,2.55
2023-05-14T16:28:31.419Z,2.80
2023-05-14T16:31:18.906Z,2.83
2023-05-14T16:34:06.044Z,2.80
2023-05-14T16:36:53.432Z,2.92
2023-05-14T16:39:40.672Z,2.80
2023-05-14T16:42:28.012Z,2.70
2023-05-14T16:45:15.199Z,3.00
2023-05-14T16:48:02.424Z,2.97
2023-05-14T16:50:49.892Z,3.10
2023-05-14T16:53:36.992Z,3.00
2023-05-14T16:56:24.422Z,3.00
2023-05-14T16:59:11.604Z,2.73
2023-05-14T17:01:59.159Z,2.70
2023-05-14T17:04:46.465Z,2.70
2023-05-14T17:07:33.587Z,2.40
2023-05-14T17:10:20.824Z,2.30
2023-05-14T17:13:08.072Z,2.50
2023-05-14T17:15:55.668Z,2.60
2023-05-14T17:18:43.056Z,2.40
2023-05-14T17:21:31.039Z,2.23
2023-05-14T17:24:18.187Z,2.40
2023-05-14T17:27:06.281Z,2.40
2023-05-14T17:29:53.406Z,2.40
2023-05-14T17:32:40.952Z,2.30
2023-05-14T17:35:28.658Z,2.30
2023-05-14T17:38:15.842Z,2.27
2023-05-14T17:41:03.073Z,2.53
2023-05-14T17:43:52.706Z,2.47
2023-05-14T17:46:40.072Z,2.70
2023-05-14T17:49:27.180Z,2.63
2023-05-14T17:52:14.348Z,2.37
2023-05-14T17:55:01.490Z,2.60
2023-05-14T17:57:48.665Z,2.50
2023-05-14T18:00:35.820Z,2.40
2023-05-14T18:03:23.072Z,2.50
2023-05-14T18:06:10.532Z,2.67
2023-05-14T18:08:57.672Z,2.53
2023-05-14T18:11:44.972Z,2.80
2023-05-14T18:14:32.094Z,2.80
2023-05-14T18:17:19.308Z,2.50
2023-05-14T18:20:07.589Z,2.50
2023-05-14T18:22:54.701Z,2.47
2023-05-14T18:25:41.877Z,2.60
2023-05-14T18:28:29.040Z,2.50
2023-05-14T18:31:16.224Z,2.40
2023-05-14T18:34:03.466Z,2.70
2023-05-14T18:36:51.026Z,2.53
2023-05-14T18:39:38.225Z,2.63
2023-05-14T18:42:25.339Z,2.70
2023-05-14T18:45:12.526Z,3.07
2023-05-14T18:47:59.797Z,2.90
2023-05-14T18:50:46.982Z,2.60
2023-05-14T18:53:34.236Z,2.93
2023-05-14T18:56:21.622Z,3.27
2023-05-14T18:59:09.344Z,2.80
2023-05-14T19:01:56.676Z,2.80
2023-05-14T19:04:52.338Z,2.87
2023-05-14T19:07:41.039Z,3.80
2023-05-14T19:10:28.164Z,3.00
2023-05-14T19:13:18.527Z,3.03
2023-05-14T19:16:05.887Z,3.50
2023-05-14T19:18:53.175Z,3.33
2023-05-14T19:21:40.277Z,3.60
2023-05-14T19:24:27.582Z,3.63
2023-05-14T19:27:16.615Z,3.33
2023-05-14T19:30:04.409Z,3.47
2023-05-14T19:32:51.864Z,4.40
2023-05-14T19:35:39.148Z,4.00
2023-05-14T19:38:26.578Z,4.07
2023-05-14T19:41:13.993Z,4.00
2023-05-14T19:44:01.159Z,3.90
2023-05-14T19:46:48.467Z,4.20
2023-05-14T19:49:35.782Z,4.03
2023-05-14T19:52:23.076Z,4.30
2023-05-14T19:55:10.618Z,3.97
2023-05-14T19:57:57.925Z,4.10
2023-05-14T20:00:47.379Z,4.20
2023-05-14T20:03:34.892Z,4.50
2023-05-14T20:06:22.165Z,4.23
2023-05-14T20:09:09.371Z,4.53
2023-05-14T20:11:56.499Z,4.67
2023-05-14T20:14:44.061Z,4.77
2023-05-14T20:17:31.284Z,4.20
2023-05-14T20:20:18.569Z,4.10
2023-05-14T20:23:06.475Z,4.50
2023-05-14T20:25:53.620Z,4.30
2023-05-14T20:28:40.889Z,4.40
2023-05-14T20:31:28.036Z,4.40
2023-05-14T20:34:15.586Z,4.20
2023-05-14T20:37:05.034Z,4.40
2023-05-14T20:39:53.111Z,4.90
2023-05-14T20:42:40.568Z,4.00
2023-05-14T20:45:28.053Z,4.50
2023-05-14T20:48:17.575Z,4.50
2023-05-14T20:51:06.483Z,3.90
2023-05-14T20:53:53.634Z,4.40
2023-05-14T20:56:40.755Z,4.03
2023-05-14T20:59:27.902Z,4.40
2023-05-14T21:02:15.798Z,4.20
2023-05-14T21:05:04.592Z,4.50
2023-05-14T21:07:52.340Z,4.17
2023-05-14T21:10:39.555Z,4.50
2023-05-14T21:13:27.462Z,4.83
2023-05-14T21:16:14.840Z,4.50
2023-05-14T21:19:02.084Z,4.53
2023-05-14T21:21:49.282Z,4.60
2023-05-14T21:24:36.726Z,4.83
2023-05-14T21:27:26.644Z,5.03
2023-05-14T21:30:14.172Z,4.70
2023-05-14T21:33:05.565Z,4.93
2023-05-14T21:35:52.926Z,4.70
2023-05-14T21:38:40.121Z,4.80
2023-05-14T21:41:27.245Z,5.00
2023-05-14T21:44:14.701Z,5.13
2023-05-14T21:47:02.197Z,5.20
2023-05-14T21:49:49.622Z,5.40
2023-05-14T21:52:38.203Z,5.17
2023-05-14T21:55:27.115Z,5.10
2023-05-14T21:58:14.482Z,4.80
2023-05-14T22:01:01.567Z,5.40
2023-05-14T22:03:49.438Z,4.67
2023-05-14T22:06:36.950Z,5.00
2023-05-14T22:09:24.157Z,4.93
2023-05-14T22:12:11.573Z,4.87
2023-05-14T22:14:58.757Z,5.03
2023-05-14T22:17:47.506Z,4.90
2023-05-14T22:20:34.588Z,4.97
2023-05-14T22:23:21.673Z,4.90
2023-05-14T22:26:08.956Z,4.47
2023-05-14T22:28:57.721Z,4.70
2023-05-14T22:31:45.066Z,4.50
2023-05-14T22:34:32.233Z,4.33
2023-05-14T22:37:19.518Z,4.87
2023-05-14T22:40:07.847Z,4.47
2023-05-14T22:42:54.935Z,4.90
2023-05-14T22:45:42.942Z,4.53
2023-05-14T22:48:30.115Z,4.43
2023-05-14T22:51:17.844Z,4.17
2023-05-14T22:54:05.211Z,4.53
2023-05-14T22:56:52.876Z,4.30
2023-05-14T22:59:40.102Z,4.43
2023-05-14T23:02:27.520Z,4.63
2023-05-14T23:05:14.773Z,4.13
2023-05-14T23:08:01.958Z,4.50
2023-05-14T23:10:49.132Z,4.27
2023-05-14T23:13:36.477Z,4.30
2023-05-14T23:16:23.687Z,4.03
2023-05-14T23:19:11.224Z,4.13
2023-05-14T23:21:59.501Z,3.93
2023-05-14T23:24:46.665Z,3.97
2023-05-14T23:27:34.738Z,4.27
2023-05-14T23:30:21.904Z,3.97
2023-05-14T23:33:09.231Z,4.20
2023-05-14T23:35:56.458Z,3.90
2023-05-14T23:38:43.951Z,3.77
2023-05-14T23:41:31.688Z,4.17
2023-05-14T23:44:19.145Z,4.00
2023-05-14T23:47:07.386Z,3.77
2023-05-14T23:49:54.516Z,3.90
2023-05-14T23:52:41.807Z,3.80
2023-05-14T23:55:28.906Z,3.83
2023-05-14T23:58:16.334Z,3.97
